Time;durP1;ratioP1;P1;durP2;ratioP2;P2;SDS_P1;SDS_P2;PMS_P1;PMS_P2;Temp;Humidity;BMP_temperature;BMP_pressure;BME280_temperature;BME280_humidity;BME280_pressure;Samples;Min_cycle;Max_cycle;Signal;HPM_P1;HPM_P2
2022/11/20 00:00:15;;;;;;;3.47;2.50;;;;;;;2.89;100.00;95300.50;5117847;27;24441;-71
2022/11/20 00:02:42;;;;;;;3.65;2.25;;;;;;;2.92;100.00;95297.81;5110646;27;24437;-70
2022/11/20 00:05:09;;;;;;;3.65;2.28;;;;;;;3.00;100.00;95302.63;5116570;27;24440;-71
2022/11/20 00:07:37;;;;;;;4.18;2.45;;;;;;;3.01;100.00;95312.00;5107696;28;24442;-70
2022/11/20 00:10:04;;;;;;;3.40;2.35;;;;;;;2.87;100.00;95303.13;5117362;27;24459;-71
2022/11/20 00:12:31;;;;;;;4.22;2.22;;;;;;;2.97;100.00;95301.03;5110406;27;24452;-71
2022/11/20 00:14:57;;;;;;;3.33;2.20;;;;;;;3.00;100.00;95295.78;5113530;27;24445;-70
2022/11/20 00:17:24;;;;;;;2.60;1.90;;;;;;;3.11;100.00;95306.41;5121594;27;24440;-70
2022/11/20 00:19:50;;;;;;;2.17;1.88;;;;;;;3.05;100.00;95306.69;5118816;27;24433;-70
2022/11/20 00:22:17;;;;;;;3.00;2.05;;;;;;;2.98;100.00;95305.25;5117968;27;24475;-72
2022/11/20 00:24:44;;;;;;;2.70;2.03;;;;;;;2.88;100.00;95303.97;5120178;27;24440;-72
2022/11/20 00:27:11;;;;;;;3.55;2.03;;;;;;;2.86;100.00;95309.16;5117621;27;24429;-71
2022/11/20 00:29:37;;;;;;;3.58;2.00;;;;;;;2.87;100.00;95312.53;5115799;27;24437;-72
2022/11/20 00:32:04;;;;;;;4.40;2.40;;;;;;;2.77;100.00;95313.78;5109064;27;24804;-71
2022/11/20 00:34:31;;;;;;;4.13;2.10;;;;;;;2.69;100.00;95310.69;5122963;27;24444;-71
2022/11/20 00:36:57;;;;;;;2.55;1.90;;;;;;;2.78;100.00;95307.78;5118348;27;24445;-71
2022/11/20 00:39:24;;;;;;;2.88;2.15;;;;;;;2.81;100.00;95308.47;5118085;27;25227;-70
2022/11/20 00:41:52;;;;;;;3.30;2.50;;;;;;;2.77;100.00;95313.78;5115342;27;24479;-70
2022/11/20 00:44:18;;;;;;;4.38;2.80;;;;;;;2.67;100.00;95309.03;5118883;27;24467;-71
2022/11/20 00:46:45;;;;;;;3.45;2.33;;;;;;;2.58;100.00;95308.56;5120506;27;24429;-71
2022/11/20 00:49:11;;;;;;;3.60;1.90;;;;;;;2.70;100.00;95312.34;5117368;27;24437;-71
2022/11/20 00:51:37;;;;;;;4.00;2.60;;;;;;;2.66;100.00;95309.91;5115566;27;24998;-70
2022/11/20 00:54:04;;;;;;;3.47;2.38;;;;;;;2.75;100.00;95315.59;5117356;27;24436;-70
2022/11/20 00:56:30;;;;;;;6.35;2.13;;;;;;;2.71;100.00;95316.56;5112472;27;24436;-70
2022/11/20 00:59:00;;;;;;;2.42;2.22;;;;;;;2.79;100.00;95312.00;5116326;27;24438;-70
2022/11/20 01:01:29;;;;;;;2.45;2.25;;;;;;;2.71;100.00;95312.31;5117158;27;24436;-70
2022/11/20 01:03:57;;;;;;;5.43;3.53;;;;;;;2.64;100.00;95313.44;5116755;27;24429;-70
2022/11/20 01:06:26;;;;;;;11.85;8.57;;;;;;;2.75;100.00;95306.19;5118605;27;24433;-70
2022/11/20 01:08:55;;;;;;;11.85;7.20;;;;;;;2.58;100.00;95311.94;5117518;27;24434;-70
2022/11/20 01:11:23;;;;;;;17.50;11.82;;;;;;;2.50;100.00;95311.41;5107255;27;24492;-71
2022/11/20 01:13:52;;;;;;;7.25;4.38;;;;;;;2.49;100.00;95312.31;5113718;27;24445;-71
2022/11/20 01:16:22;;;;;;;8.48;4.25;;;;;;;2.45;100.00;95312.47;5115403;27;24465;-71
2022/11/20 01:18:52;;;;;;;9.95;6.63;;;;;;;2.54;100.00;95312.97;5117289;27;24456;-72
2022/11/20 01:21:21;;;;;;;17.08;10.60;;;;;;;2.44;100.00;95311.63;5115670;27;24442;-70
2022/11/20 01:23:49;;;;;;;14.00;10.85;;;;;;;2.42;100.00;95313.44;5111185;27;24437;-70
2022/11/20 01:26:18;;;;;;;18.45;11.75;;;;;;;2.46;100.00;95309.88;5118072;27;24426;-71
2022/11/20 01:28:44;;;;;;;20.33;11.80;;;;;;;2.33;100.00;95318.88;5117289;27;24433;-71
2022/11/20 01:31:12;;;;;;;23.67;14.10;;;;;;;2.23;100.00;95322.69;5107592;27;25019;-71
2022/11/20 01:33:41;;;;;;;23.70;14.55;;;;;;;2.33;100.00;95312.03;5116467;27;24456;-71
2022/11/20 01:36:09;;;;;;;17.77;12.20;;;;;;;2.41;100.00;95307.50;5113462;27;24983;-71
2022/11/20 01:38:35;;;;;;;13.52;9.93;;;;;;;2.56;100.00;95310.31;5121029;27;24444;-71
2022/11/20 01:41:02;;;;;;;13.73;9.48;;;;;;;2.33;100.00;95313.78;5110907;27;24448;-71
2022/11/20 01:43:28;;;;;;;9.15;6.28;;;;;;;2.28;100.00;95306.28;5121392;27;24430;-71
2022/11/20 01:46:02;;;;;;;19.25;9.85;;;;;;;2.24;100.00;95311.56;5120076;27;24440;-72
2022/11/20 01:48:36;;;;;;;22.75;11.98;;;;;;;2.25;100.00;95308.13;5103786;27;25046;-72
2022/11/20 01:51:07;;;;;;;22.50;10.63;;;;;;;2.27;100.00;95308.91;5120572;27;25012;-71
2022/11/20 01:53:37;;;;;;;10.43;4.00;;;;;;;2.22;100.00;95311.63;5119513;27;24456;-70
2022/11/20 01:56:06;;;;;;;3.65;2.85;;;;;;;2.32;100.00;95307.84;5123399;27;24492;-70
2022/11/20 01:58:36;;;;;;;3.92;2.65;;;;;;;2.36;100.00;95311.09;5112320;27;24437;-70
2022/11/20 02:01:05;;;;;;;4.00;2.65;;;;;;;2.38;100.00;95310.16;5124619;27;24444;-70
2022/11/20 02:03:31;;;;;;;2.80;2.50;;;;;;;2.44;100.00;95311.63;5119151;27;24433;-70
2022/11/20 02:06:04;;;;;;;5.18;2.55;;;;;;;2.55;100.00;95309.50;5118990;27;24440;-72
2022/11/20 02:08:33;;;;;;;3.38;2.17;;;;;;;2.59;100.00;95305.94;5113258;27;24433;-72
2022/11/20 02:11:00;;;;;;;3.25;2.50;;;;;;;2.46;100.00;95309.88;5123977;27;24440;-71
2022/11/20 02:13:43;;;;;;;5.10;2.40;;;;;;;2.21;100.00;95311.69;5114457;27;24441;-71
2022/11/20 02:16:16;;;;;;;4.10;3.40;;;;;;;2.26;100.00;95300.38;5122636;27;24996;-71
2022/11/20 02:18:44;;;;;;;5.35;3.72;;;;;;;2.16;100.00;95302.47;5111973;27;24441;-70
2022/11/20 02:21:20;;;;;;;4.00;3.00;;;;;;;2.20;100.00;95298.09;5122047;27;24441;-71
2022/11/20 02:24:01;;;;;;;3.38;2.50;;;;;;;2.31;100.00;95297.69;5105643;28;24456;-72
2022/11/20 02:26:30;;;;;;;3.43;2.10;;;;;;;2.13;100.00;95307.69;5117134;28;24529;-71
2022/11/20 02:28:59;;;;;;;3.30;2.13;;;;;;;2.12;100.00;95306.03;5105935;28;25037;-71
2022/11/20 02:31:26;;;;;;;4.13;2.28;;;;;;;2.23;100.00;95312.47;5109660;28;24437;-71
2022/11/20 02:33:56;;;;;;;2.53;2.00;;;;;;;2.33;100.00;95303.56;5100326;28;24465;-70
2022/11/20 02:36:25;;;;;;;2.65;2.00;;;;;;;2.30;100.00;95306.22;5112673;28;24977;-71
2022/11/20 02:38:51;;;;;;;2.47;1.98;;;;;;;2.25;100.00;95305.56;5116959;28;24974;-70
2022/11/20 02:41:19;;;;;;;2.15;1.83;;;;;;;2.23;100.00;95304.81;5111763;28;24987;-70
2022/11/20 02:43:46;;;;;;;2.67;2.10;;;;;;;2.25;100.00;95311.50;5101575;28;24437;-70
2022/11/20 02:46:12;;;;;;;2.20;1.90;;;;;;;2.22;100.00;95309.06;5114460;28;24437;-71
2022/11/20 02:48:39;;;;;;;3.03;1.90;;;;;;;2.09;100.00;95307.88;5119546;28;24475;-70
2022/11/20 02:51:05;;;;;;;4.05;1.77;;;;;;;2.16;100.00;95310.13;5115350;28;24436;-70
2022/11/20 02:53:32;;;;;;;3.25;1.88;;;;;;;2.16;100.00;95314.41;5112108;28;24810;-70
2022/11/20 02:55:58;;;;;;;8.18;2.10;;;;;;;1.99;100.00;95307.38;5116110;28;24425;-71
2022/11/20 02:58:27;;;;;;;2.13;1.88;;;;;;;2.01;100.00;95307.31;5115075;28;24429;-71
2022/11/20 03:00:53;;;;;;;2.33;1.92;;;;;;;2.16;100.00;95312.69;5114611;28;24452;-71
2022/11/20 03:03:20;;;;;;;2.88;1.95;;;;;;;2.28;100.00;95308.00;5107084;28;24433;-71
2022/11/20 03:05:46;;;;;;;2.55;1.90;;;;;;;2.31;100.00;95301.06;5117468;28;25006;-70
2022/11/20 03:08:13;;;;;;;3.30;2.00;;;;;;;2.37;100.00;95315.31;5119149;28;24440;-70
2022/11/20 03:10:39;;;;;;;2.87;2.03;;;;;;;2.41;100.00;95316.88;5120812;28;24504;-71
2022/11/20 03:13:06;;;;;;;4.55;1.92;;;;;;;2.48;100.00;95308.06;5105179;28;24446;-71
2022/11/20 03:15:33;;;;;;;3.08;1.90;;;;;;;2.54;100.00;95312.97;5110054;28;24460;-70
2022/11/20 03:18:00;;;;;;;2.40;2.00;;;;;;;2.54;100.00;95314.69;5117402;28;24433;-70
2022/11/20 03:20:27;;;;;;;2.40;1.95;;;;;;;2.57;100.00;95309.47;5118060;28;24889;-70
2022/11/20 03:22:54;;;;;;;2.90;1.80;;;;;;;2.61;100.00;95306.72;5108670;28;24441;-70
2022/11/20 03:25:21;;;;;;;2.60;2.00;;;;;;;2.61;100.00;95305.88;5115366;28;24788;-71
2022/11/20 03:27:48;;;;;;;2.80;1.90;;;;;;;2.47;100.00;95303.03;5117580;28;24435;-71
2022/11/20 03:30:15;;;;;;;2.35;1.90;;;;;;;2.40;100.00;95304.97;5118249;28;25014;-70
2022/11/20 03:32:43;;;;;;;2.75;2.38;;;;;;;2.38;100.00;95302.50;5112520;28;24452;-71
2022/11/20 03:35:10;;;;;;;2.53;2.10;;;;;;;2.30;100.00;95299.41;5114009;28;24445;-71
2022/11/20 03:37:36;;;;;;;3.25;1.90;;;;;;;2.21;100.00;95294.63;5110213;27;24447;-71
2022/11/20 03:40:04;;;;;;;3.00;2.05;;;;;;;2.21;100.00;95309.13;5104123;27;24445;-72
2022/11/20 03:42:48;;;;;;;4.68;2.30;;;;;;;2.20;100.00;95315.97;5111225;27;24429;-71
2022/11/20 03:45:16;;;;;;;2.30;2.03;;;;;;;2.14;100.00;95303.41;5113650;27;24465;-70
2022/11/20 03:47:44;;;;;;;2.70;2.00;;;;;;;2.10;100.00;95305.25;5110678;27;24447;-70
2022/11/20 03:50:12;;;;;;;2.80;2.20;;;;;;;2.04;100.00;95292.72;5112327;27;24438;-70
2022/11/20 03:52:39;;;;;;;3.03;2.10;;;;;;;2.00;100.00;95295.44;5105510;27;24429;-70
2022/11/20 03:55:06;;;;;;;1.92;1.73;;;;;;;1.96;100.00;95294.69;5107600;27;24442;-70
2022/11/20 03:57:33;;;;;;;4.18;2.00;;;;;;;1.99;100.00;95293.75;5125147;27;24433;-70
2022/11/20 03:59:59;;;;;;;2.78;1.92;;;;;;;1.90;100.00;95294.94;5109042;27;24435;-70
2022/11/20 04:02:26;;;;;;;4.00;2.17;;;;;;;1.94;100.00;95296.50;5119561;27;24474;-70
2022/11/20 04:04:54;;;;;;;3.15;2.13;;;;;;;1.90;100.00;95295.78;5110793;27;24442;-70
2022/11/20 04:07:20;;;;;;;2.45;1.90;;;;;;;2.07;100.00;95292.59;5120127;27;24977;-70
2022/11/20 04:09:48;;;;;;;1.98;1.77;;;;;;;2.23;100.00;95286.94;5116338;27;24502;-71
2022/11/20 04:12:14;;;;;;;3.33;1.98;;;;;;;2.34;100.00;95295.00;5123000;27;24437;-70
2022/11/20 04:14:41;;;;;;;2.65;1.85;;;;;;;2.35;100.00;95291.56;5114600;27;24445;-70
2022/11/20 04:17:07;;;;;;;3.47;2.00;;;;;;;2.31;100.00;95288.28;5118928;27;24449;-70
2022/11/20 04:19:33;;;;;;;2.55;1.98;;;;;;;2.43;100.00;95286.97;5117796;27;24433;-70
2022/11/20 04:22:01;;;;;;;3.20;1.93;;;;;;;2.40;100.00;95287.91;5123398;27;24503;-70
2022/11/20 04:24:28;;;;;;;1.90;1.70;;;;;;;2.40;100.00;95284.53;5115901;27;24474;-70
2022/11/20 04:26:54;;;;;;;2.05;1.70;;;;;;;2.52;100.00;95281.53;5117516;27;24440;-70
2022/11/20 04:29:21;;;;;;;2.53;1.90;;;;;;;2.42;100.00;95285.31;5122642;27;24993;-70
2022/11/20 04:31:47;;;;;;;2.85;2.05;;;;;;;2.54;100.00;95282.28;5120932;27;24433;-71
2022/11/20 04:34:14;;;;;;;2.92;2.03;;;;;;;2.56;100.00;95283.06;5117853;27;24818;-70
2022/11/20 04:36:40;;;;;;;2.20;1.80;;;;;;;2.62;100.00;95280.25;5118779;27;24433;-70
2022/11/20 04:39:14;;;;;;;1.85;1.67;;;;;;;2.58;100.00;95283.81;5121629;27;24444;-70
2022/11/20 04:41:40;;;;;;;2.60;1.75;;;;;;;2.51;100.00;95282.41;5109324;27;24437;-70
2022/11/20 04:44:07;;;;;;;3.10;1.75;;;;;;;2.69;100.00;95285.13;5122272;27;24440;-70
2022/11/20 04:46:36;;;;;;;1.93;1.70;;;;;;;2.61;100.00;95290.56;5118409;27;24477;-70
2022/11/20 04:49:02;;;;;;;2.47;1.70;;;;;;;2.71;100.00;95281.63;5103341;28;24441;-70
2022/11/20 04:51:29;;;;;;;3.33;2.10;;;;;;;2.76;100.00;95289.94;5114385;27;24440;-70
2022/11/20 04:53:56;;;;;;;3.17;1.92;;;;;;;2.87;100.00;95276.72;5123169;27;24449;-70
2022/11/20 04:56:24;;;;;;;1.95;1.70;;;;;;;2.95;100.00;95278.97;5117338;27;24430;-71
2022/11/20 04:58:51;;;;;;;2.30;1.80;;;;;;;2.98;100.00;95281.41;5124212;27;24440;-71
2022/11/20 05:01:19;;;;;;;1.87;1.63;;;;;;;2.97;100.00;95280.59;5109227;27;24535;-71
2022/11/20 05:03:47;;;;;;;2.88;1.80;;;;;;;2.86;100.00;95277.63;5122012;27;24426;-71
2022/11/20 05:06:15;;;;;;;2.88;2.00;;;;;;;2.97;100.00;95275.47;5118292;27;25006;-71
2022/11/20 05:08:42;;;;;;;1.92;1.70;;;;;;;2.98;100.00;95278.84;5112081;27;24439;-71
2022/11/20 05:11:10;;;;;;;2.20;1.63;;;;;;;2.80;100.00;95277.88;5115251;27;25010;-71
2022/11/20 05:13:40;;;;;;;2.40;1.97;;;;;;;2.82;100.00;95276.09;5105558;27;24863;-71
2022/11/20 05:16:08;;;;;;;2.33;2.00;;;;;;;2.82;100.00;95268.41;5119317;27;24437;-71
2022/11/20 05:18:36;;;;;;;2.20;2.00;;;;;;;2.86;100.00;95267.41;5115050;27;24432;-71
2022/11/20 05:21:03;;;;;;;4.50;2.55;;;;;;;2.85;100.00;95275.94;5116398;27;24807;-71
2022/11/20 05:23:31;;;;;;;3.75;2.40;;;;;;;2.87;100.00;95274.16;5106121;27;24436;-71
2022/11/20 05:25:58;;;;;;;2.67;1.80;;;;;;;2.92;100.00;95277.34;5118229;27;25001;-71
2022/11/20 05:28:26;;;;;;;3.20;2.00;;;;;;;2.88;100.00;95260.47;5114502;27;24436;-70
2022/11/20 05:30:54;;;;;;;1.95;1.75;;;;;;;2.94;100.00;95273.03;5114770;27;25001;-72
2022/11/20 05:33:21;;;;;;;1.92;1.73;;;;;;;3.02;100.00;95272.72;5105526;27;25018;-72
2022/11/20 05:35:48;;;;;;;2.60;1.85;;;;;;;3.04;100.00;95276.03;5109410;27;24434;-71
2022/11/20 05:38:15;;;;;;;2.83;1.80;;;;;;;3.09;100.00;95269.00;5113154;27;24499;-71
2022/11/20 05:40:41;;;;;;;2.60;1.75;;;;;;;3.14;100.00;95273.03;5116063;27;25189;-71
2022/11/20 05:43:08;;;;;;;2.78;2.30;;;;;;;3.08;100.00;95273.28;5104373;27;24442;-71
2022/11/20 05:45:34;;;;;;;2.50;2.13;;;;;;;3.12;100.00;95279.13;5118092;27;24791;-72
2022/11/20 05:48:02;;;;;;;2.95;1.80;;;;;;;3.14;100.00;95273.03;5108830;27;24434;-71
2022/11/20 05:50:29;;;;;;;4.57;1.70;;;;;;;3.17;100.00;95272.06;5110598;27;24445;-71
2022/11/20 05:52:56;;;;;;;2.40;1.60;;;;;;;3.16;100.00;95270.41;5113741;27;24437;-71
2022/11/20 05:55:22;;;;;;;3.22;1.50;;;;;;;3.20;100.00;95282.19;5123279;27;24991;-71
2022/11/20 05:57:49;;;;;;;1.60;1.30;;;;;;;3.21;100.00;95271.03;5115846;27;24805;-70
2022/11/20 06:00:16;;;;;;;2.42;1.63;;;;;;;3.24;100.00;95273.47;5123988;27;24443;-70
2022/11/20 06:02:42;;;;;;;2.97;1.60;;;;;;;3.37;100.00;95276.34;5113046;27;24453;-70
2022/11/20 06:05:10;;;;;;;4.63;1.48;;;;;;;3.43;100.00;95275.25;5105755;27;24432;-70
2022/11/20 06:07:37;;;;;;;3.03;1.63;;;;;;;3.48;100.00;95265.66;5107025;27;24433;-71
2022/11/20 06:10:04;;;;;;;4.47;1.60;;;;;;;3.45;100.00;95268.34;5114880;27;24787;-70
2022/11/20 06:12:32;;;;;;;3.60;1.67;;;;;;;3.41;100.00;95265.06;5110506;27;24986;-71
2022/11/20 06:14:59;;;;;;;2.08;1.50;;;;;;;3.39;100.00;95274.56;5123047;27;24452;-71
2022/11/20 06:17:25;;;;;;;5.43;1.80;;;;;;;3.39;100.00;95272.81;5109084;27;24789;-72
2022/11/20 06:19:52;;;;;;;1.95;1.60;;;;;;;3.43;100.00;95253.06;5108688;27;24438;-71
2022/11/20 06:22:20;;;;;;;2.90;1.40;;;;;;;3.46;100.00;95258.03;5119861;27;24432;-71
2022/11/20 06:24:46;;;;;;;2.05;1.20;;;;;;;3.53;100.00;95258.63;5103851;28;25126;-71
2022/11/20 06:27:13;;;;;;;2.22;1.42;;;;;;;3.53;100.00;95258.63;5119972;27;24436;-71
2022/11/20 06:29:39;;;;;;;2.05;1.40;;;;;;;3.57;100.00;95263.53;5121650;28;24451;-71
2022/11/20 06:32:06;;;;;;;2.67;1.65;;;;;;;3.57;100.00;95263.53;5110088;28;24429;-71
2022/11/20 06:34:32;;;;;;;4.90;1.30;;;;;;;3.50;100.00;95259.56;5102958;28;24476;-71
2022/11/20 06:36:59;;;;;;;1.20;0.93;;;;;;;3.51;100.00;95258.66;5100156;28;24433;-71
2022/11/20 06:39:26;;;;;;;2.03;1.23;;;;;;;3.50;100.00;95261.31;5108443;28;24429;-71
2022/11/20 06:41:53;;;;;;;2.55;2.33;;;;;;;3.48;100.00;95257.97;5121258;28;24974;-71
2022/11/20 06:44:19;;;;;;;2.90;2.45;;;;;;;3.49;100.00;95260.47;5113985;28;24422;-71
2022/11/20 06:46:46;;;;;;;1.98;1.23;;;;;;;3.50;100.00;95266.44;5115733;28;24790;-72
2022/11/20 06:49:12;;;;;;;1.33;1.00;;;;;;;3.54;100.00;95271.34;5114027;28;24434;-72
2022/11/20 06:51:39;;;;;;;1.35;1.10;;;;;;;3.53;100.00;95269.69;5115452;28;24992;-71
2022/11/20 06:54:06;;;;;;;2.10;1.50;;;;;;;3.54;100.00;95275.63;5114047;28;24453;-72
2022/11/20 06:56:33;;;;;;;2.90;2.08;;;;;;;3.56;100.00;95276.38;5107486;28;24515;-72
2022/11/20 06:59:05;;;;;;;2.08;1.80;;;;;;;3.60;100.00;95271.09;5120489;28;24421;-71
2022/11/20 07:01:31;;;;;;;1.75;1.65;;;;;;;3.59;100.00;95277.09;5098755;28;24490;-72
2022/11/20 07:03:58;;;;;;;1.60;1.30;;;;;;;3.74;100.00;95274.75;5120673;28;24425;-70
2022/11/20 07:06:24;;;;;;;2.63;1.15;;;;;;;3.82;100.00;95286.34;5119284;28;24997;-71
2022/11/20 07:08:52;;;;;;;1.20;0.90;;;;;;;3.78;100.00;95289.09;5110313;28;24431;-72
2022/11/20 07:11:18;;;;;;;2.15;1.30;;;;;;;3.97;100.00;95291.66;5119610;27;24490;-71
2022/11/20 07:13:46;;;;;;;2.58;1.27;;;;;;;4.24;100.00;95287.06;5113945;27;24449;-72
2022/11/20 07:16:13;;;;;;;2.95;1.30;;;;;;;4.03;100.00;95292.22;5109801;27;24437;-71
2022/11/20 07:18:39;;;;;;;1.40;1.20;;;;;;;3.94;100.00;95292.66;5119324;27;24504;-72
2022/11/20 07:21:08;;;;;;;19.33;12.87;;;;;;;3.87;100.00;95296.38;5117625;27;24803;-71
2022/11/20 07:23:34;;;;;;;6.00;3.20;;;;;;;3.87;100.00;95304.91;5115708;27;24554;-71
2022/11/20 07:26:04;;;;;;;4.07;2.88;;;;;;;3.87;100.00;95304.91;5108066;27;24441;-71
2022/11/20 07:28:31;;;;;;;5.10;2.70;;;;;;;3.88;100.00;95300.59;5105239;27;24426;-72
2022/11/20 07:30:59;;;;;;;2.05;1.45;;;;;;;3.84;100.00;95299.91;5102104;27;24434;-72
2022/11/20 07:33:25;;;;;;;12.23;5.72;;;;;;;3.85;100.00;95308.41;5121552;27;24433;-72
2022/11/20 07:35:52;;;;;;;5.95;3.90;;;;;;;3.93;100.00;95316.63;5122512;27;24433;-71
2022/11/20 07:38:18;;;;;;;2.60;1.83;;;;;;;3.90;100.00;95315.91;5115727;27;25290;-71
2022/11/20 07:40:45;;;;;;;3.40;2.17;;;;;;;3.86;100.00;95317.78;5109154;27;24434;-73
2022/11/20 07:43:11;;;;;;;2.63;2.10;;;;;;;3.90;100.00;95315.91;5114934;27;24529;-72
2022/11/20 07:45:38;;;;;;;4.25;3.53;;;;;;;3.88;100.00;95321.09;5118066;27;24788;-72
2022/11/20 07:48:06;;;;;;;1.75;1.15;;;;;;;3.94;100.00;95323.41;5122037;27;24440;-71
2022/11/20 07:50:33;;;;;;;7.18;3.53;;;;;;;3.94;100.00;95325.13;5121422;27;24982;-71
2022/11/20 07:53:04;;;;;;;2.72;1.58;;;;;;;3.98;100.00;95324.94;5118312;27;24521;-73
2022/11/20 07:55:30;;;;;;;2.15;1.55;;;;;;;3.92;100.00;95325.19;5119003;27;24445;-75
2022/11/20 07:57:58;;;;;;;2.13;1.50;;;;;;;3.84;100.00;95317.00;5110124;27;25021;-73
2022/11/20 08:00:25;;;;;;;2.13;1.50;;;;;;;3.82;100.00;95319.66;5119957;27;24837;-73
2022/11/20 08:02:52;;;;;;;2.90;1.60;;;;;;;3.85;100.00;95318.66;5119255;27;24448;-72
2022/11/20 08:05:19;;;;;;;2.95;1.63;;;;;;;3.87;100.00;95327.13;5111424;27;24434;-72
2022/11/20 08:07:46;;;;;;;3.28;2.58;;;;;;;3.85;100.00;95332.28;5109046;27;24441;-71
2022/11/20 08:10:15;;;;;;;2.05;1.30;;;;;;;3.87;100.00;95333.06;5111646;27;24994;-71
2022/11/20 08:15:29;;;;;;;9.63;7.28;;;;;;;3.86;100.00;95331.41;5108366;27;24562;-71
2022/11/20 08:18:01;;;;;;;11.00;6.50;;;;;;;3.91;100.00;95333.78;5116980;27;24465;-71
2022/11/20 08:20:29;;;;;;;9.10;6.57;;;;;;;3.93;100.00;95337.13;5109133;27;24495;-71
2022/11/20 08:22:59;;;;;;;3.05;2.40;;;;;;;4.00;100.00;95335.91;5106379;27;24881;-75
2022/11/20 08:25:26;;;;;;;4.53;2.78;;;;;;;3.96;100.00;95328.44;5106210;27;24422;-73
2022/11/20 08:27:52;;;;;;;2.97;2.38;;;;;;;3.99;100.00;95338.56;5099791;28;24449;-72
2022/11/20 08:30:19;;;;;;;2.80;1.65;;;;;;;3.98;100.00;95339.47;5108950;27;24437;-72
2022/11/20 08:32:46;;;;;;;2.22;1.45;;;;;;;3.98;100.00;95340.28;5113659;27;24440;-72
2022/11/20 08:35:12;;;;;;;2.03;1.48;;;;;;;4.02;100.00;95339.25;5115603;27;24448;-71
2022/11/20 08:37:41;;;;;;;5.28;2.97;;;;;;;4.05;100.00;95354.50;5121225;27;24824;-71
2022/11/20 08:40:10;;;;;;;4.38;3.00;;;;;;;4.08;100.00;95344.13;5109396;27;24492;-72
2022/11/20 08:42:36;;;;;;;3.97;2.72;;;;;;;4.15;100.00;95354.09;5118433;27;25430;-72
2022/11/20 08:45:03;;;;;;;3.83;2.58;;;;;;;4.11;100.00;95346.53;5113575;27;24429;-72
2022/11/20 08:47:30;;;;;;;2.15;1.60;;;;;;;4.08;100.00;95356.94;5097243;27;24997;-72
2022/11/20 08:49:56;;;;;;;2.00;1.38;;;;;;;4.12;100.00;95355.06;5094145;27;24442;-72
2022/11/20 08:52:23;;;;;;;2.20;1.77;;;;;;;4.06;100.00;95361.28;5100295;28;24486;-72
2022/11/20 08:54:51;;;;;;;2.38;1.55;;;;;;;4.05;100.00;95351.94;5106856;28;24453;-72
2022/11/20 08:57:17;;;;;;;2.45;1.30;;;;;;;4.11;100.00;95351.66;5103906;27;24446;-71
2022/11/20 08:59:44;;;;;;;1.90;0.70;;;;;;;4.09;100.00;95360.34;5100188;27;24434;-71
2022/11/20 09:02:10;;;;;;;0.87;0.70;;;;;;;4.13;100.00;95364.41;5097633;27;24438;-72
2022/11/20 09:04:37;;;;;;;1.90;0.70;;;;;;;4.08;100.00;95363.81;5096922;27;24444;-72
2022/11/20 09:07:03;;;;;;;0.75;0.70;;;;;;;4.03;100.00;95358.84;5095456;27;24430;-71
2022/11/20 09:09:30;;;;;;;1.40;1.10;;;;;;;4.07;100.00;95362.13;5101050;27;25000;-72
2022/11/20 09:11:58;;;;;;;1.07;0.90;;;;;;;4.13;100.00;95372.09;5113427;27;24531;-72
2022/11/20 09:14:28;;;;;;;2.13;0.93;;;;;;;4.12;100.00;95371.28;5111705;27;24804;-73
2022/11/20 09:16:55;;;;;;;1.08;0.75;;;;;;;4.09;100.00;95371.41;5107298;27;24442;-71
2022/11/20 09:19:22;;;;;;;1.60;1.23;;;;;;;4.03;100.00;95374.22;5109973;27;24445;-72
2022/11/20 09:21:48;;;;;;;3.88;2.35;;;;;;;4.03;100.00;95365.72;5117405;27;24803;-72
2022/11/20 09:24:15;;;;;;;1.10;0.65;;;;;;;4.08;100.00;95372.31;5114955;27;24447;-72
2022/11/20 09:26:41;;;;;;;1.13;0.77;;;;;;;4.07;100.00;95369.81;5109778;27;24430;-71
2022/11/20 09:29:09;;;;;;;1.00;0.88;;;;;;;4.07;100.00;95382.63;5111888;27;24453;-71
2022/11/20 09:31:36;;;;;;;1.90;1.50;;;;;;;4.02;100.00;95382.00;5105565;27;24859;-74
2022/11/20 09:34:02;;;;;;;1.20;0.90;;;;;;;3.98;100.00;95378.72;5117213;27;24437;-74
2022/11/20 09:36:29;;;;;;;2.38;1.58;;;;;;;4.06;100.00;95376.66;5107731;27;24434;-74
2022/11/20 09:38:56;;;;;;;1.80;1.50;;;;;;;4.05;100.00;95375.00;5109099;27;24437;-73
2022/11/20 09:41:56;;;;;;;1.35;1.05;;;;;;;4.09;100.00;95375.72;5109831;27;24998;-73
2022/11/20 09:44:38;;;;;;;2.80;1.90;;;;;;;4.13;100.00;95379.78;5120876;27;24429;-74
2022/11/20 09:47:09;;;;;;;1.80;1.65;;;;;;;4.22;100.00;95383.69;5098914;27;24552;-74
2022/11/20 09:49:55;;;;;;;2.58;2.33;;;;;;;4.28;100.00;95376.56;5103332;27;24435;-72
2022/11/20 09:52:31;;;;;;;3.50;2.35;;;;;;;4.41;100.00;95384.50;5114427;27;24804;-72
2022/11/20 09:54:58;;;;;;;2.75;2.20;;;;;;;4.47;100.00;95383.44;5101980;28;24991;-71
2022/11/20 09:57:33;;;;;;;2.45;2.10;;;;;;;4.51;100.00;95390.91;5107543;27;24435;-72
2022/11/20 10:00:02;;;;;;;3.13;1.58;;;;;;;4.56;100.00;95388.97;5105361;27;24440;-72
2022/11/20 10:02:38;;;;;;;2.50;1.60;;;;;;;4.63;100.00;95386.94;5105453;28;24433;-71
2022/11/20 10:05:12;;;;;;;3.10;2.60;;;;;;;4.59;100.00;95395.69;5094827;28;24441;-72
2022/11/20 10:07:44;;;;;;;2.00;1.80;;;;;;;4.59;100.00;95390.56;5102987;28;24823;-72
2022/11/20 10:10:16;;;;;;;2.88;2.05;;;;;;;4.59;100.00;95393.13;5113289;27;24444;-73
2022/11/20 10:12:58;;;;;;;4.80;2.50;;;;;;;4.61;100.00;95391.34;5113979;27;24436;-72
2022/11/20 10:15:38;;;;;;;2.88;1.30;;;;;;;4.50;100.00;95389.25;5098903;28;24457;-72
2022/11/20 10:18:16;;;;;;;1.40;1.13;;;;;;;4.51;100.00;95384.94;5109520;27;24437;-71
2022/11/20 10:20:49;;;;;;;2.40;1.48;;;;;;;4.48;100.00;95377.38;5107812;27;24445;-72
2022/11/20 10:23:51;;;;;;;5.68;2.83;;;;;;;4.48;100.00;95385.91;5105478;27;24433;-72
2022/11/20 10:26:22;;;;;;;10.35;2.97;;;;;;;4.47;100.00;95381.69;5103012;27;24436;-72
2022/11/20 10:29:03;;;;;;;12.23;2.92;;;;;;;4.51;100.00;95384.94;5110671;27;24490;-72
2022/11/20 10:31:35;;;;;;;4.25;2.67;;;;;;;4.50;100.00;95381.56;5096979;28;25184;-72
2022/11/20 10:34:06;;;;;;;13.00;5.05;;;;;;;4.55;100.00;95381.34;5110326;28;24429;-72
2022/11/20 10:36:38;;;;;;;11.10;4.47;;;;;;;4.75;100.00;95375.31;5110630;28;25134;-72
2022/11/20 10:39:12;;;;;;;4.07;1.92;;;;;;;4.82;100.00;95374.97;5114603;28;24990;-72
2022/11/20 10:41:42;;;;;;;6.00;2.22;;;;;;;4.89;100.00;95374.66;5110730;27;24443;-71
2022/11/20 10:45:00;;;;;;;3.63;1.60;;;;;;;4.93;100.00;95369.34;5109678;28;24789;-71
2022/11/20 10:47:04;;;;;;;5.95;1.77;;;;;;;4.93;100.00;95369.34;5100813;28;24448;-71
2022/11/20 10:49:33;;;;;;;3.93;2.13;;;;;;;4.93;100.00;95368.47;5110712;28;24490;-72
2022/11/20 10:52:06;;;;;;;2.20;1.60;;;;;;;4.94;100.00;95376.13;5112284;27;24792;-72
2022/11/20 10:54:39;;;;;;;5.03;1.90;;;;;;;4.95;100.00;95372.63;5108036;28;24434;-72
2022/11/20 10:57:18;;;;;;;4.37;1.93;;;;;;;4.92;100.00;95364.25;5103129;27;24445;-70
2022/11/20 10:59:59;;;;;;;2.85;1.70;;;;;;;4.99;100.00;95371.59;5124282;27;25016;-71
2022/11/20 11:02:34;;;;;;;2.63;1.55;;;;;;;4.99;100.00;95370.75;5113785;27;24440;-71
2022/11/20 11:05:12;;;;;;;6.95;2.20;;;;;;;4.98;100.00;95366.53;5122223;27;24444;-71
2022/11/20 11:07:41;;;;;;;5.03;1.47;;;;;;;5.04;100.00;95367.09;5121906;27;24430;-72
2022/11/20 11:10:17;;;;;;;3.75;1.55;;;;;;;5.03;100.00;95362.00;5116908;27;24452;-72
2022/11/20 11:12:46;;;;;;;2.67;1.38;;;;;;;5.12;100.00;95353.03;5123331;27;24471;-71
2022/11/20 11:15:24;;;;;;;3.50;1.45;;;;;;;5.20;100.00;95351.78;5124197;27;24452;-71
2022/11/20 11:17:52;;;;;;;2.20;1.10;;;;;;;5.33;100.00;95350.25;5119648;27;24445;-72
2022/11/20 11:20:21;;;;;;;4.97;1.37;;;;;;;5.50;100.00;95348.63;5122257;27;25217;-72
2022/11/20 11:22:49;;;;;;;3.00;1.65;;;;;;;5.54;100.00;95343.25;5120017;27;24433;-72
2022/11/20 11:25:28;;;;;;;2.10;1.10;;;;;;;5.72;100.00;95338.94;5116974;27;24448;-71
2022/11/20 11:27:57;;;;;;;4.20;1.60;;;;;;;5.69;100.00;95336.50;5113546;27;24437;-72
2022/11/20 11:30:25;;;;;;;2.03;1.20;;;;;;;5.82;100.00;95340.13;5123542;27;24445;-71
2022/11/20 11:33:04;;;;;;;3.28;1.30;;;;;;;5.90;100.00;95331.19;5111284;27;24441;-71
2022/11/20 11:35:30;;;;;;;3.03;1.40;;;;;;;5.92;100.00;95335.38;5104113;27;24445;-71
2022/11/20 11:38:05;;;;;;;3.30;1.13;;;;;;;5.91;100.00;95323.41;5103021;28;24437;-71
2022/11/20 11:40:33;;;;;;;3.03;1.00;;;;;;;6.02;100.00;95321.13;5114060;27;24437;-72